Time;durP1;ratioP1;P1;durP2;ratioP2;P2;SDS_P1;SDS_P2;PMS_P1;PMS_P2;Temp;Humidity;BMP_temperature;BMP_pressure;BME280_temperature;BME280_humidity;BME280_pressure;Samples;Min_cycle;Max_cycle;Signal;HPM_P1;HPM_P2
2024/01/29 00:01:34;;;;;;;6.73;5.07;;;0.70;94.20;;;;;;5084055;28;20217;-75
2024/01/29 00:04:01;;;;;;;6.40;4.13;;;0.80;93.90;;;;;;5089328;28;20228;-75
2024/01/29 00:06:30;;;;;;;5.83;4.10;;;0.90;93.40;;;;;;5088147;28;20559;-76
2024/01/29 00:08:57;;;;;;;7.60;4.57;;;0.70;93.60;;;;;;5081940;28;20677;-75
2024/01/29 00:11:44;;;;;;;5.33;3.90;;;0.60;93.80;;;;;;5083620;28;20200;-75
2024/01/29 00:14:10;;;;;;;8.73;5.83;;;0.50;94.10;;;;;;5076916;28;20205;-75
2024/01/29 00:16:37;;;;;;;5.60;4.07;;;0.50;94.10;;;;;;5087605;28;20209;-75
2024/01/29 00:19:05;;;;;;;6.83;4.50;;;0.40;94.10;;;;;;5084397;28;20196;-75
2024/01/29 00:21:33;;;;;;;6.27;4.23;;;0.40;94.40;;;;;;5083307;28;20227;-75
2024/01/29 00:24:00;;;;;;;8.17;3.90;;;0.40;94.70;;;;;;5082957;28;20197;-76
2024/01/29 00:26:35;;;;;;;6.60;4.20;;;0.50;94.10;;;;;;5081859;28;20558;-79
2024/01/29 00:29:02;;;;;;;6.73;4.27;;;0.60;94.10;;;;;;5081612;28;20193;-76
2024/01/29 00:31:29;;;;;;;6.00;4.40;;;0.50;94.10;;;;;;5080420;28;20201;-76
2024/01/29 00:33:55;;;;;;;8.03;4.40;;;0.40;94.10;;;;;;5081345;28;20200;-76
2024/01/29 00:36:22;;;;;;;6.53;4.10;;;0.50;94.10;;;;;;5086654;28;20203;-74
2024/01/29 00:38:50;;;;;;;7.77;4.50;;;0.50;94.10;;;;;;5083836;28;20291;-74
2024/01/29 00:41:17;;;;;;;6.07;3.87;;;0.40;94.10;;;;;;5086429;28;20220;-75
2024/01/29 00:43:44;;;;;;;5.83;4.00;;;0.30;94.10;;;;;;5087864;28;20648;-74
2024/01/29 00:46:11;;;;;;;6.50;3.80;;;0.30;94.10;;;;;;5087965;28;20779;-73
2024/01/29 00:48:37;;;;;;;5.57;3.57;;;0.30;94.30;;;;;;5086005;28;20222;-74
2024/01/29 00:51:04;;;;;;;7.53;3.80;;;0.30;94.10;;;;;;5089051;28;20197;-74
2024/01/29 00:53:31;;;;;;;5.77;3.60;;;0.20;94.10;;;;;;5081299;28;20742;-74
2024/01/29 00:55:59;;;;;;;5.43;3.50;;;0.20;94.10;;;;;;5090197;28;20204;-74
2024/01/29 00:58:26;;;;;;;6.13;3.80;;;0.20;94.10;;;;;;5088586;28;20192;-74
2024/01/29 01:00:53;;;;;;;6.37;3.30;;;0.20;94.10;;;;;;5087875;28;20579;-74
2024/01/29 01:03:19;;;;;;;4.57;3.20;;;0.10;94.00;;;;;;5087669;28;20833;-76
2024/01/29 01:05:46;;;;;;;4.30;3.30;;;0.10;94.00;;;;;;5086786;28;20193;-74
2024/01/29 01:08:13;;;;;;;5.80;3.60;;;0.10;94.00;;;;;;5089241;28;20197;-74
2024/01/29 01:10:40;;;;;;;6.67;3.90;;;0.10;94.10;;;;;;5084423;28;20261;-74
2024/01/29 01:13:10;;;;;;;6.20;3.77;;;0.10;94.30;;;;;;5090347;28;20197;-74
2024/01/29 01:15:36;;;;;;;5.17;3.80;;;0.20;94.00;;;;;;5088322;28;20193;-74
2024/01/29 01:18:04;;;;;;;5.50;3.30;;;0.20;93.60;;;;;;5084755;28;20201;-75
2024/01/29 01:20:31;;;;;;;6.13;3.57;;;0.10;93.50;;;;;;5086821;28;20724;-75
2024/01/29 01:22:57;;;;;;;6.43;3.60;;;0.00;93.50;;;;;;5082318;28;20224;-75
2024/01/29 01:25:24;;;;;;;4.23;3.40;;;-0.10;93.90;;;;;;5083621;28;20192;-75
2024/01/29 01:27:53;;;;;;;5.17;3.60;;;-0.10;94.00;;;;;;5085390;28;20205;-75
2024/01/29 01:30:22;;;;;;;4.23;3.10;;;-0.10;94.00;;;;;;5087628;28;20758;-75
2024/01/29 01:32:49;;;;;;;3.83;3.10;;;-0.10;94.00;;;;;;5087173;28;20219;-74
2024/01/29 01:35:15;;;;;;;5.50;3.57;;;0.00;94.00;;;;;;5084703;28;20706;-74
2024/01/29 01:37:42;;;;;;;5.20;3.60;;;0.00;94.00;;;;;;5086140;28;20197;-75
2024/01/29 01:40:10;;;;;;;7.50;3.50;;;0.00;94.00;;;;;;5083835;28;20200;-74
2024/01/29 01:42:40;;;;;;;4.43;3.10;;;0.00;94.00;;;;;;5081503;28;20213;-74
2024/01/29 01:45:07;;;;;;;4.90;3.20;;;0.20;93.90;;;;;;5084007;28;20197;-76
2024/01/29 01:47:36;;;;;;;4.80;3.10;;;0.30;93.30;;;;;;5081939;28;20208;-74
2024/01/29 01:50:03;;;;;;;4.37;3.20;;;0.20;93.20;;;;;;5081371;28;20839;-76
2024/01/29 01:52:31;;;;;;;4.03;3.10;;;0.20;93.30;;;;;;5082448;28;20200;-74
2024/01/29 01:54:58;;;;;;;5.70;2.93;;;0.00;93.80;;;;;;5087416;28;20199;-73
2024/01/29 01:57:25;;;;;;;4.37;3.20;;;0.00;94.00;;;;;;5083397;28;20224;-74
2024/01/29 01:59:52;;;;;;;5.87;4.33;;;0.10;93.80;;;;;;5073930;28;20208;-75
2024/01/29 02:02:19;;;;;;;4.17;3.30;;;0.10;93.50;;;;;;5086041;28;20225;-74
2024/01/29 02:04:47;;;;;;;6.73;3.73;;;0.20;93.50;;;;;;5088955;28;20203;-76
2024/01/29 02:07:15;;;;;;;5.00;3.10;;;0.30;93.30;;;;;;5086065;28;20197;-74
2024/01/29 02:09:42;;;;;;;4.20;2.90;;;0.30;92.90;;;;;;5084560;28;20231;-74
2024/01/29 02:12:09;;;;;;;4.53;3.23;;;0.20;92.90;;;;;;5084461;28;20205;-74
2024/01/29 02:14:36;;;;;;;5.03;3.50;;;0.10;93.30;;;;;;5086105;28;20559;-74
2024/01/29 02:17:03;;;;;;;4.40;3.37;;;0.00;93.60;;;;;;5088962;28;20294;-74
2024/01/29 02:19:30;;;;;;;4.33;3.33;;;0.00;93.90;;;;;;5085363;28;20196;-73
2024/01/29 02:21:58;;;;;;;5.70;3.33;;;-0.10;94.00;;;;;;5084351;28;20680;-73
2024/01/29 02:24:27;;;;;;;4.93;3.53;;;-0.20;94.00;;;;;;5085810;28;20252;-75
2024/01/29 02:26:53;;;;;;;5.60;3.67;;;-0.20;94.00;;;;;;5081170;28;20197;-74
2024/01/29 02:29:20;;;;;;;4.53;3.30;;;-0.30;94.30;;;;;;5086422;28;20196;-74
2024/01/29 02:31:47;;;;;;;4.50;3.40;;;-0.20;94.10;;;;;;5083481;28;20197;-76
2024/01/29 02:34:14;;;;;;;5.20;3.37;;;-0.10;94.00;;;;;;5087189;28;20640;-75
2024/01/29 02:36:53;;;;;;;5.50;4.00;;;0.00;94.00;;;;;;5080041;28;20563;-75
2024/01/29 02:39:22;;;;;;;4.40;3.30;;;0.00;94.00;;;;;;5085289;28;20203;-75
2024/01/29 02:41:50;;;;;;;4.53;3.20;;;0.00;94.00;;;;;;5085970;28;20216;-75
2024/01/29 02:44:17;;;;;;;6.37;3.20;;;-0.10;94.00;;;;;;5082501;28;20293;-76
2024/01/29 02:46:43;;;;;;;5.73;3.77;;;-0.10;94.00;;;;;;5078554;28;20212;-75
2024/01/29 02:49:10;;;;;;;6.10;3.43;;;-0.20;94.10;;;;;;5088318;28;20212;-75
2024/01/29 02:51:37;;;;;;;5.50;3.53;;;-0.30;94.50;;;;;;5084059;28;20995;-75
2024/01/29 02:54:04;;;;;;;4.57;3.47;;;-0.20;94.40;;;;;;5088115;28;20652;-75
2024/01/29 02:56:40;;;;;;;5.10;3.80;;;-0.30;94.40;;;;;;5082171;28;20212;-75
2024/01/29 02:59:08;;;;;;;4.13;3.23;;;-0.30;94.50;;;;;;5085954;28;20664;-76
2024/01/29 03:01:35;;;;;;;5.37;3.70;;;-0.20;94.10;;;;;;5082285;28;20574;-76
2024/01/29 03:06:42;;;;;;;6.53;4.13;;;0.10;97.70;;;;;;5077256;28;20205;-75
2024/01/29 03:09:09;;;;;;;3.93;3.10;;;0.40;96.60;;;;;;5080736;28;20200;-76
2024/01/29 03:11:36;;;;;;;5.73;3.63;;;0.30;95.50;;;;;;5076433;28;20197;-77
2024/01/29 03:14:02;;;;;;;6.17;4.47;;;0.10;94.20;;;;;;5086394;28;20203;-76
2024/01/29 03:16:31;;;;;;;6.30;3.97;;;0.20;96.70;;;;;;5079517;28;20192;-76
2024/01/29 03:18:58;;;;;;;4.93;3.80;;;0.30;95.70;;;;;;5082894;28;20205;-75
2024/01/29 03:21:27;;;;;;;5.17;3.43;;;0.20;94.90;;;;;;5084880;28;20202;-75
2024/01/29 03:23:54;;;;;;;5.07;3.60;;;-0.10;94.30;;;;;;5085454;28;20199;-76
2024/01/29 03:26:20;;;;;;;4.77;3.33;;;-0.10;95.10;;;;;;5087342;28;20200;-75
2024/01/29 03:28:47;;;;;;;5.63;3.30;;;-0.20;95.40;;;;;;5079499;28;20557;-76
2024/01/29 03:31:14;;;;;;;5.60;3.13;;;-0.30;95.00;;;;;;5080107;28;20193;-75
2024/01/29 03:33:42;;;;;;;5.83;3.50;;;-0.30;95.10;;;;;;5082475;28;20199;-75
2024/01/29 03:36:09;;;;;;;5.67;3.37;;;-0.50;95.00;;;;;;5077768;28;20235;-75
2024/01/29 03:38:36;;;;;;;4.97;3.43;;;-0.50;95.20;;;;;;5087071;28;20193;-75
2024/01/29 03:41:03;;;;;;;7.53;3.77;;;-0.60;95.40;;;;;;5084896;28;20208;-75
2024/01/29 03:43:29;;;;;;;4.87;3.53;;;-0.30;97.30;;;;;;5084281;28;20727;-76
2024/01/29 03:45:55;;;;;;;5.40;4.00;;;0.00;96.60;;;;;;5079124;28;20193;-76
2024/01/29 03:48:22;;;;;;;5.87;3.43;;;0.20;95.60;;;;;;5082163;28;20219;-73
2024/01/29 03:50:50;;;;;;;4.80;3.20;;;0.40;95.30;;;;;;5080718;28;20205;-75
2024/01/29 03:53:17;;;;;;;4.23;2.97;;;0.40;94.10;;;;;;5084452;28;20680;-78
2024/01/29 03:55:44;;;;;;;4.87;3.20;;;0.10;92.70;;;;;;5082812;28;20228;-75
2024/01/29 03:58:11;;;;;;;3.97;2.93;;;-0.10;93.40;;;;;;5085733;28;20211;-75
2024/01/29 04:00:38;;;;;;;4.40;3.00;;;-0.10;94.60;;;;;;5086932;28;20208;-76
2024/01/29 04:03:07;;;;;;;3.67;2.80;;;0.20;94.90;;;;;;5083926;28;20692;-75
2024/01/29 04:05:34;;;;;;;5.03;2.90;;;0.10;94.00;;;;;;5076257;28;20333;-76
2024/01/29 04:08:02;;;;;;;6.10;2.63;;;0.20;94.10;;;;;;5083270;28;20201;-75
2024/01/29 04:10:29;;;;;;;4.37;2.90;;;0.10;93.70;;;;;;5082921;28;20193;-75
2024/01/29 04:12:56;;;;;;;4.03;2.83;;;-0.10;92.70;;;;;;5083505;28;20582;-76
2024/01/29 04:15:23;;;;;;;4.43;3.17;;;-0.40;92.90;;;;;;5084559;28;20204;-75
2024/01/29 04:17:49;;;;;;;3.23;2.50;;;-0.50;93.60;;;;;;5079471;28;20196;-75
2024/01/29 04:20:16;;;;;;;3.33;2.80;;;-0.70;93.90;;;;;;5086457;28;20195;-75
2024/01/29 04:22:43;;;;;;;3.63;2.87;;;-0.70;93.90;;;;;;5090553;28;20226;-75
2024/01/29 04:25:11;;;;;;;4.37;3.30;;;-0.40;95.80;;;;;;5090840;28;20203;-75
2024/01/29 04:27:38;;;;;;;8.80;5.00;;;-0.20;95.20;;;;;;5084076;28;20205;-75
2024/01/29 04:30:06;;;;;;;16.87;8.87;;;-0.10;94.50;;;;;;5084196;28;20196;-74
2024/01/29 04:32:33;;;;;;;13.30;7.20;;;-0.10;93.80;;;;;;5089689;28;20220;-74
2024/01/29 04:35:00;;;;;;;17.10;7.43;;;-0.30;93.10;;;;;;5083950;28;20197;-74
2024/01/29 04:37:27;;;;;;;9.87;5.87;;;-0.50;93.20;;;;;;5082439;28;20193;-73
2024/01/29 04:39:54;;;;;;;12.03;5.93;;;-0.70;93.60;;;;;;5090174;28;20203;-74
2024/01/29 04:42:22;;;;;;;8.77;4.87;;;-0.60;94.20;;;;;;5083940;28;20732;-74
2024/01/29 04:44:49;;;;;;;11.47;6.63;;;-0.40;95.00;;;;;;5085918;28;20192;-73
2024/01/29 04:47:16;;;;;;;11.47;6.57;;;-0.10;94.80;;;;;;5085571;28;20196;-74
2024/01/29 04:49:42;;;;;;;6.20;4.10;;;-0.20;93.80;;;;;;5089058;28;20287;-75
2024/01/29 04:52:09;;;;;;;7.13;3.97;;;0.10;94.70;;;;;;5086553;28;20200;-75
2024/01/29 04:54:36;;;;;;;5.30;3.50;;;0.10;94.00;;;;;;5086474;28;20197;-75
2024/01/29 04:57:03;;;;;;;5.60;3.50;;;0.10;93.50;;;;;;5087374;28;20222;-74
2024/01/29 04:59:31;;;;;;;5.60;3.17;;;0.20;94.00;;;;;;5084059;28;20615;-74
2024/01/29 05:01:58;;;;;;;4.73;3.27;;;0.30;93.40;;;;;;5085913;28;20196;-74
2024/01/29 05:04:25;;;;;;;5.03;3.30;;;0.30;92.30;;;;;;5086820;28;20193;-74
2024/01/29 05:06:51;;;;;;;7.03;3.70;;;0.20;93.00;;;;;;5087133;28;20207;-74
2024/01/29 05:09:19;;;;;;;4.53;2.90;;;0.10;92.20;;;;;;5086612;28;20202;-74
2024/01/29 05:11:46;;;;;;;4.83;3.20;;;-0.10;92.00;;;;;;5086131;28;20193;-74
2024/01/29 05:14:12;;;;;;;3.60;2.70;;;-0.30;92.70;;;;;;5085769;28;20200;-74
2024/01/29 05:16:40;;;;;;;4.63;3.00;;;-0.30;93.40;;;;;;5085682;28;20209;-75
2024/01/29 05:19:08;;;;;;;3.63;2.33;;;-0.30;93.60;;;;;;5089707;28;20202;-75
2024/01/29 05:21:35;;;;;;;3.57;2.70;;;-0.30;93.50;;;;;;5085629;28;20569;-74
2024/01/29 05:24:02;;;;;;;3.13;2.60;;;-0.40;93.00;;;;;;5089714;28;20224;-74
2024/01/29 05:26:29;;;;;;;4.20;2.80;;;-0.30;94.00;;;;;;5088527;28;20189;-75
2024/01/29 05:28:56;;;;;;;6.57;2.70;;;-0.30;93.10;;;;;;5081971;28;20197;-75
2024/01/29 05:31:22;;;;;;;4.77;2.43;;;-0.30;93.10;;;;;;5086301;28;20205;-76
2024/01/29 05:33:50;;;;;;;4.37;2.97;;;-0.30;93.50;;;;;;5085253;28;20680;-76
2024/01/29 05:36:17;;;;;;;3.83;2.63;;;-0.30;93.10;;;;;;5085055;28;20199;-75
2024/01/29 05:38:44;;;;;;;4.33;2.67;;;-0.20;93.10;;;;;;5076959;28;20193;-76
2024/01/29 05:41:11;;;;;;;5.13;2.47;;;-0.30;93.00;;;;;;5085699;28;20208;-75
2024/01/29 05:43:37;;;;;;;4.00;2.33;;;-0.40;93.00;;;;;;5086185;28;20212;-76
2024/01/29 05:46:04;;;;;;;3.67;2.53;;;-0.50;93.90;;;;;;5086212;28;20203;-75
2024/01/29 05:48:30;;;;;;;5.40;3.60;;;-0.20;94.00;;;;;;5081195;28;20197;-75
2024/01/29 05:50:58;;;;;;;4.30;2.77;;;-0.20;92.80;;;;;;5085752;28;20201;-76
2024/01/29 05:53:25;;;;;;;5.13;2.60;;;-0.30;92.90;;;;;;5085598;28;20204;-76
2024/01/29 05:55:52;;;;;;;5.80;3.80;;;-0.30;92.80;;;;;;5086980;28;20560;-76
2024/01/29 05:58:18;;;;;;;5.07;3.67;;;-0.10;93.00;;;;;;5084574;28;20201;-75
2024/01/29 06:00:45;;;;;;;5.57;3.57;;;-0.10;92.30;;;;;;5082925;28;20199;-76
2024/01/29 06:03:12;;;;;;;5.33;4.00;;;-0.10;92.70;;;;;;5064679;28;20692;-76
2024/01/29 06:05:39;;;;;;;6.03;4.80;;;0.00;92.70;;;;;;5082443;28;20209;-76
2024/01/29 06:08:07;;;;;;;4.87;3.80;;;0.10;92.80;;;;;;5085850;28;20711;-76
2024/01/29 06:10:35;;;;;;;5.10;3.90;;;0.20;92.20;;;;;;5083410;28;20663;-75
2024/01/29 06:13:02;;;;;;;5.47;2.83;;;0.10;91.40;;;;;;5082016;28;20208;-76
2024/01/29 06:15:28;;;;;;;7.00;4.17;;;0.10;91.40;;;;;;5088764;28;20211;-78
2024/01/29 06:17:55;;;;;;;5.23;3.40;;;0.00;91.50;;;;;;5091604;28;20203;-78
2024/01/29 06:20:22;;;;;;;6.47;2.70;;;-0.10;91.30;;;;;;5086178;28;20189;-78
2024/01/29 06:22:49;;;;;;;4.53;3.10;;;-0.30;91.30;;;;;;5087233;28;20246;-78
2024/01/29 06:25:19;;;;;;;3.23;2.50;;;-0.60;91.30;;;;;;5084419;28;20204;-83
2024/01/29 06:27:46;;;;;;;3.63;2.30;;;-0.90;91.80;;;;;;5083841;28;20208;-77
2024/01/29 06:30:14;;;;;;;4.67;3.00;;;-1.10;92.30;;;;;;5087459;28;20192;-77
2024/01/29 06:32:41;;;;;;;5.30;3.00;;;-0.80;93.80;;;;;;5081730;28;20200;-76
2024/01/29 06:35:09;;;;;;;5.37;2.90;;;-0.60;93.50;;;;;;5087781;28;20207;-75
2024/01/29 06:37:36;;;;;;;5.87;2.83;;;-0.70;92.40;;;;;;5081994;28;20691;-75
2024/01/29 06:40:04;;;;;;;4.10;2.73;;;-0.80;92.50;;;;;;5088694;28;20220;-77
2024/01/29 06:42:32;;;;;;;3.57;2.53;;;-0.90;92.80;;;;;;5081509;28;20530;-81
2024/01/29 06:44:59;;;;;;;6.00;2.97;;;-0.80;93.50;;;;;;5087087;28;20684;-76
2024/01/29 06:47:26;;;;;;;6.30;3.20;;;-0.80;93.60;;;;;;5085521;28;20954;-77
2024/01/29 06:49:58;;;;;;;5.20;2.50;;;-0.70;93.90;;;;;;5088366;28;20257;-75
2024/01/29 06:52:25;;;;;;;5.43;3.20;;;-0.60;93.40;;;;;;5084177;28;20205;-75
2024/01/29 06:54:52;;;;;;;10.27;3.80;;;-0.70;92.80;;;;;;5089602;28;20635;-75
2024/01/29 06:57:19;;;;;;;10.23;3.60;;;-0.70;93.00;;;;;;5081184;28;20215;-75
2024/01/29 06:59:47;;;;;;;6.17;3.17;;;-0.80;93.30;;;;;;5085511;28;20208;-78
2024/01/29 07:02:14;;;;;;;7.00;3.70;;;-0.80;93.80;;;;;;5083203;28;20299;-76
2024/01/29 07:04:42;;;;;;;7.43;3.10;;;-0.70;93.90;;;;;;5084848;28;20553;-76
2024/01/29 07:07:08;;;;;;;6.80;3.17;;;-0.70;93.90;;;;;;5084616;28;20196;-75
2024/01/29 07:09:35;;;;;;;5.67;3.10;;;-0.50;94.60;;;;;;5081002;28;20554;-75
2024/01/29 07:12:02;;;;;;;5.63;3.10;;;-0.20;94.40;;;;;;5084370;28;20916;-76
2024/01/29 07:14:29;;;;;;;7.50;3.50;;;0.00;94.00;;;;;;5088715;28;20196;-75
2024/01/29 07:16:57;;;;;;;6.07;3.27;;;0.10;94.00;;;;;;5078255;28;20232;-76
2024/01/29 07:19:26;;;;;;;6.07;3.83;;;0.20;94.00;;;;;;5085077;28;20200;-76
2024/01/29 07:21:53;;;;;;;5.40;3.03;;;0.20;92.60;;;;;;5081668;28;20250;-76
2024/01/29 07:24:20;;;;;;;6.40;3.23;;;0.00;92.40;;;;;;5085236;28;20228;-76
2024/01/29 07:26:47;;;;;;;7.33;3.77;;;0.00;93.10;;;;;;5081880;28;20197;-76
2024/01/29 07:29:13;;;;;;;8.47;3.80;;;0.10;94.00;;;;;;5078414;28;20200;-76
2024/01/29 07:31:40;;;;;;;8.23;3.80;;;0.30;93.20;;;;;;5084241;28;20199;-76
2024/01/29 07:34:09;;;;;;;6.13;3.67;;;0.10;92.00;;;;;;5083773;28;20193;-75
2024/01/29 07:36:37;;;;;;;8.73;3.70;;;0.00;92.70;;;;;;5079134;28;20193;-76
2024/01/29 07:39:04;;;;;;;9.97;4.57;;;-0.10;92.50;;;;;;5064261;28;20289;-76
2024/01/29 07:41:31;;;;;;;6.83;3.60;;;-0.10;92.20;;;;;;5078723;28;20224;-76
2024/01/29 07:43:58;;;;;;;9.47;3.60;;;-0.30;92.00;;;;;;5078952;28;20224;-76
2024/01/29 07:46:25;;;;;;;7.90;3.37;;;-0.40;92.70;;;;;;5086985;28;20554;-75
2024/01/29 07:48:51;;;;;;;11.80;3.60;;;-0.50;92.80;;;;;;5086537;28;20192;-76
2024/01/29 07:51:19;;;;;;;11.40;3.90;;;-0.60;93.20;;;;;;5089478;28;20952;-77
2024/01/29 07:53:47;;;;;;;12.13;3.37;;;-0.60;93.40;;;;;;5082352;28;20288;-75
2024/01/29 07:56:13;;;;;;;10.10;3.13;;;-0.50;93.90;;;;;;5084530;28;20284;-77
2024/01/29 07:58:40;;;;;;;7.40;3.90;;;0.10;94.00;;;;;;5084042;28;20210;-76
2024/01/29 08:01:07;;;;;;;9.30;3.70;;;0.50;93.40;;;;;;5089373;28;20207;-78
2024/01/29 08:03:34;;;;;;;7.23;3.33;;;0.80;91.80;;;;;;5083189;28;20708;-77
2024/01/29 08:06:01;;;;;;;8.07;3.27;;;0.90;90.50;;;;;;5087955;28;20216;-77
2024/01/29 08:08:30;;;;;;;6.23;3.40;;;1.30;90.30;;;;;;5084612;28;20208;-78
2024/01/29 08:10:58;;;;;;;8.40;3.33;;;1.60;86.80;;;;;;5089624;28;20201;-77
2024/01/29 08:13:25;;;;;;;6.63;3.23;;;1.70;86.80;;;;;;5087099;28;20201;-78
2024/01/29 08:15:52;;;;;;;9.33;3.33;;;2.00;87.10;;;;;;5082311;28;20201;-77
2024/01/29 08:18:19;;;;;;;8.53;3.90;;;2.40;87.30;;;;;;5087280;28;20201;-77
2024/01/29 08:20:46;;;;;;;9.50;3.43;;;2.60;80.60;;;;;;5092283;28;20193;-78
2024/01/29 08:23:13;;;;;;;8.07;3.20;;;2.70;82.20;;;;;;5081821;28;20227;-77
2024/01/29 08:25:41;;;;;;;10.10;3.60;;;2.50;80.80;;;;;;5082395;28;20198;-78
2024/01/29 08:28:08;;;;;;;8.27;3.10;;;2.30;81.20;;;;;;5088931;28;20196;-77
2024/01/29 08:30:34;;;;;;;4.57;3.13;;;2.20;81.20;;;;;;5089436;28;20197;-77
2024/01/29 08:33:01;;;;;;;4.17;2.90;;;2.20;83.30;;;;;;5085469;28;20580;-77
2024/01/29 08:35:28;;;;;;;5.33;2.70;;;2.30;83.30;;;;;;5085663;28;20200;-77
2024/01/29 08:37:55;;;;;;;6.60;2.97;;;2.70;82.40;;;;;;5087301;28;20220;-77
2024/01/29 08:40:21;;;;;;;7.67;3.00;;;3.00;81.00;;;;;;5084450;28;20196;-77
2024/01/29 08:42:50;;;;;;;8.03;3.30;;;3.40;76.40;;;;;;5092529;28;20220;-79
2024/01/29 08:45:16;;;;;;;7.80;3.40;;;3.60;75.80;;;;;;5083509;28;20227;-79
2024/01/29 08:47:43;;;;;;;9.63;3.60;;;3.50;77.30;;;;;;5085544;28;21194;-79
2024/01/29 08:50:10;;;;;;;8.93;3.80;;;3.60;75.70;;;;;;5093099;28;20201;-79
2024/01/29 08:52:37;;;;;;;9.67;4.10;;;3.70;75.10;;;;;;5089304;28;20192;-79
2024/01/29 08:55:11;;;;;;;11.50;5.33;;;3.80;76.80;;;;;;5086119;28;20197;-79
2024/01/29 08:57:37;;;;;;;11.83;4.67;;;4.10;77.80;;;;;;5087850;28;20270;-79
2024/01/29 09:00:07;;;;;;;10.43;4.50;;;4.40;75.90;;;;;;5080032;28;20209;-79
2024/01/29 09:02:35;;;;;;;9.95;5.07;;;4.50;75.50;;;;;;5087098;28;20207;-79
2024/01/29 09:05:01;;;;;;;7.97;3.90;;;5.00;69.70;;;;;;5078570;28;20232;-80
2024/01/29 09:07:28;;;;;;;12.25;3.80;;;5.50;67.60;;;;;;5086762;28;20196;-80
2024/01/29 09:09:55;;;;;;;8.55;2.40;;;6.70;45.80;;;;;;5087951;28;20282;-80
2024/01/29 09:12:22;;;;;;;5.22;2.35;;;7.20;30.70;;;;;;5076798;28;20208;-80
2024/01/29 09:14:50;;;;;;;5.40;2.42;;;7.60;26.70;;;;;;5069101;28;20209;-83
2024/01/29 09:17:19;;;;;;;6.88;2.30;;;8.10;24.80;;;;;;5092618;28;20277;-81
2024/01/29 09:19:45;;;;;;;5.32;3.03;;;8.80;24.10;;;;;;5085900;28;20561;-81
2024/01/29 09:22:12;;;;;;;9.50;2.90;;;10.10;19.60;;;;;;5084793;28;20220;-81
2024/01/29 09:24:39;;;;;;;5.93;3.20;;;10.30;20.90;;;;;;5086054;28;20217;-82
2024/01/29 09:27:06;;;;;;;4.97;2.78;;;11.40;18.30;;;;;;5090029;28;20197;-80
2024/01/29 09:29:33;;;;;;;6.22;3.03;;;12.10;17.00;;;;;;5081177;28;20212;-80
2024/01/29 09:32:00;;;;;;;5.88;2.47;;;13.30;13.50;;;;;;5080588;28;20193;-79
2024/01/29 09:34:28;;;;;;;5.07;3.00;;;14.10;10.80;;;;;;5089578;28;20204;-77
2024/01/29 09:36:55;;;;;;;4.75;3.05;;;15.00;8.00;;;;;;5087057;28;20205;-75
2024/01/29 09:39:24;;;;;;;8.05;3.28;;;15.30;7.90;;;;;;5090844;28;20325;-75
2024/01/29 09:41:52;;;;;;;5.93;2.70;;;14.80;7.60;;;;;;5089029;28;20201;-77
2024/01/29 09:44:18;;;;;;;3.08;2.50;;;15.70;6.00;;;;;;5087816;28;20251;-77
2024/01/29 09:46:47;;;;;;;5.28;2.88;;;15.90;3.80;;;;;;5088837;28;20197;-76
2024/01/29 09:49:14;;;;;;;7.60;2.70;;;16.10;2.30;;;;;;5085052;28;20207;-77
2024/01/29 09:51:46;;;;;;;6.20;3.10;;;15.80;3.80;;;;;;5086075;28;20218;-76
2024/01/29 09:54:13;;;;;;;10.07;2.90;;;16.10;3.50;;;;;;5087559;28;20200;-77
2024/01/29 09:56:40;;;;;;;7.38;3.33;;;16.20;5.80;;;;;;5082401;28;20222;-77
2024/01/29 09:59:07;;;;;;;5.85;2.90;;;16.80;4.00;;;;;;5065131;28;20552;-77
2024/01/29 10:01:36;;;;;;;6.70;2.88;;;16.80;4.10;;;;;;5066704;28;20200;-77
2024/01/29 10:04:03;;;;;;;11.98;3.35;;;16.60;6.40;;;;;;5085518;28;20227;-77
2024/01/29 10:06:30;;;;;;;11.60;3.80;;;16.50;5.10;;;;;;5088991;28;20199;-77
2024/01/29 10:08:58;;;;;;;11.27;3.10;;;16.00;6.60;;;;;;5089589;28;20565;-77
2024/01/29 10:11:25;;;;;;;12.75;3.50;;;16.50;3.30;;;;;;5087053;28;20211;-79
2024/01/29 10:13:59;;;;;;;9.65;3.70;;;16.10;3.40;;;;;;5083851;28;20205;-78
2024/01/29 10:16:27;;;;;;;12.43;3.58;;;15.30;5.00;;;;;;5084293;28;20885;-77
2024/01/29 10:18:56;;;;;;;5.80;3.13;;;15.40;3.90;;;;;;5080920;28;20653;-77
2024/01/29 10:21:23;;;;;;;7.65;3.25;;;16.10;4.50;;;;;;5086325;28;20236;-77
2024/01/29 10:23:55;;;;;;;10.63;3.38;;;16.20;3.10;;;;;;5086143;28;20220;-77
2024/01/29 10:26:23;;;;;;;8.98;3.40;;;15.90;2.60;;;;;;5081368;28;20203;-77
2024/01/29 10:29:01;;;;;;;7.68;3.28;;;15.50;3.10;;;;;;5087339;28;20538;-77
2024/01/29 10:31:27;;;;;;;9.65;3.40;;;15.10;3.40;;;;;;5086344;28;20196;-77
2024/01/29 10:33:54;;;;;;;11.20;3.45;;;14.60;4.20;;;;;;5084974;28;20231;-77
2024/01/29 10:36:22;;;;;;;7.65;3.00;;;14.60;5.20;;;;;;5084611;28;20196;-77
2024/01/29 10:38:48;;;;;;;10.63;3.53;;;15.30;4.20;;;;;;5068471;28;20208;-77
2024/01/29 10:41:17;;;;;;;7.05;3.25;;;14.80;4.30;;;;;;5089307;28;20196;-77
2024/01/29 10:43:48;;;;;;;8.85;3.13;;;14.50;4.90;;;;;;5087053;28;20223;-77
2024/01/29 10:46:19;;;;;;;9.15;2.90;;;15.00;3.30;;;;;;5081855;28;20207;-77
2024/01/29 10:48:46;;;;;;;8.15;2.85;;;14.80;3.10;;;;;;5086421;28;21551;-75
2024/01/29 10:51:15;;;;;;;3.35;2.53;;;14.40;4.00;;;;;;5086525;28;20196;-75
2024/01/29 10:53:42;;;;;;;8.88;2.53;;;14.70;3.40;;;;;;5084036;28;20193;-76
2024/01/29 10:56:10;;;;;;;3.42;2.10;;;14.40;3.70;;;;;;5083650;28;20230;-76
2024/01/29 10:58:37;;;;;;;4.25;2.25;;;15.30;3.70;;;;;;5084827;28;20197;-75
2024/01/29 11:01:07;;;;;;;3.45;1.90;;;15.40;3.50;;;;;;5084683;28;20792;-77
2024/01/29 11:03:34;;;;;;;8.88;2.22;;;14.80;4.40;;;;;;5084621;28;20192;-75
2024/01/29 11:06:09;;;;;;;5.15;2.10;;;15.20;2.80;;;;;;5080265;28;20228;-75
2024/01/29 11:08:39;;;;;;;3.03;2.10;;;15.40;2.80;;;;;;5080764;28;20193;-79
2024/01/29 11:11:07;;;;;;;3.97;1.80;;;15.30;2.70;;;;;;5084568;28;20200;-79
2024/01/29 11:13:35;;;;;;;3.45;1.90;;;15.70;2.10;;;;;;5084844;28;20204;-79
2024/01/29 11:16:02;;;;;;;2.75;1.70;;;15.70;1.50;;;;;;5082556;28;20199;-79
2024/01/29 11:18:34;;;;;;;3.05;1.52;;;15.50;1.00;;;;;;5086181;28;20205;-79
2024/01/29 11:21:01;;;;;;;1.30;1.20;;;15.20;1.00;;;;;;5086761;28;20207;-78
2024/01/29 11:23:29;;;;;;;3.65;1.80;;;14.70;2.30;;;;;;5089209;28;20195;-79
2024/01/29 11:25:59;;;;;;;2.42;1.50;;;14.20;2.00;;;;;;5079623;28;20224;-81
2024/01/29 11:28:26;;;;;;;1.52;1.42;;;13.00;3.70;;;;;;5083536;28;20208;-81
2024/01/29 11:30:53;;;;;;;2.42;1.38;;;12.80;4.30;;;;;;5078872;28;20193;-81
2024/01/29 11:33:21;;;;;;;4.78;1.30;;;12.50;4.70;;;;;;5088883;28;20203;-81
2024/01/29 11:35:55;;;;;;;1.80;1.40;;;12.30;4.00;;;;;;5086930;28;20266;-81
2024/01/29 11:38:23;;;;;;;2.05;1.70;;;12.20;4.60;;;;;;5087428;28;20282;-81
2024/01/29 11:40:50;;;;;;;2.90;1.60;;;12.30;6.00;;;;;;5088617;28;20329;-81
2024/01/29 11:43:18;;;;;;;1.70;1.42;;;12.20;5.90;;;;;;5085841;28;20189;-81
2024/01/29 11:45:47;;;;;;;1.50;1.40;;;12.30;6.00;;;;;;5089199;28;20243;-81
2024/01/29 11:48:18;;;;;;;3.35;1.60;;;12.10;5.80;;;;;;5088898;28;20202;-81
2024/01/29 11:50:46;;;;;;;3.15;1.30;;;12.10;5.80;;;;;;5089259;28;20680;-81
2024/01/29 11:53:16;;;;;;;3.67;1.50;;;12.10;5.90;;;;;;5088158;28;20197;-81
2024/01/29 11:55:46;;;;;;;3.38;1.98;;;12.20;5.90;;;;;;5088513;28;20197;-81
2024/01/29 11:58:28;;;;;;;3.05;1.85;;;12.30;6.00;;;;;;5082701;28;20228;-82
2024/01/29 12:01:02;;;;;;;5.35;1.80;;;12.30;6.00;;;;;;5063674;28;20266;-81
2024/01/29 12:03:34;;;;;;;7.40;2.30;;;12.30;6.00;;;;;;5091828;28;20196;-81
2024/01/29 12:06:01;;;;;;;2.58;1.52;;;12.20;6.20;;;;;;5090598;28;20240;-81
2024/01/29 12:08:31;;;;;;;5.30;1.80;;;12.00;7.10;;;;;;5085257;28;20628;-81
2024/01/29 12:11:01;;;;;;;7.07;2.17;;;11.90;7.80;;;;;;5085001;28;20197;-80
2024/01/29 12:13:28;;;;;;;4.97;2.00;;;11.80;8.30;;;;;;5090647;28;20824;-83
2024/01/29 12:15:57;;;;;;;9.63;2.38;;;11.70;7.90;;;;;;5090813;28;20665;-81
2024/01/29 12:18:25;;;;;;;5.75;2.13;;;11.70;7.90;;;;;;5084950;28;20310;-80
2024/01/29 12:20:53;;;;;;;4.35;1.98;;;11.70;8.10;;;;;;5086916;28;20204;-83
2024/01/29 12:23:22;;;;;;;3.08;1.73;;;11.80;7.80;;;;;;5091124;28;20189;-83
2024/01/29 12:25:54;;;;;;;4.25;2.17;;;11.90;7.90;;;;;;5084147;28;20282;-83
2024/01/29 12:28:21;;;;;;;3.40;1.92;;;11.90;8.00;;;;;;5091180;28;20196;-83
2024/01/29 12:30:56;;;;;;;3.15;1.90;;;11.90;7.80;;;;;;5092788;28;20223;-83
2024/01/29 12:33:28;;;;;;;2.42;1.90;;;11.90;7.30;;;;;;5070142;28;20192;-84
2024/01/29 12:35:56;;;;;;;2.60;1.90;;;12.00;7.40;;;;;;5091779;28;20205;-84
2024/01/29 12:38:23;;;;;;;3.25;1.70;;;12.00;7.40;;;;;;5084898;28;20208;-84
2024/01/29 12:40:56;;;;;;;5.18;2.00;;;12.00;7.30;;;;;;5090292;28;20198;-83
2024/01/29 12:43:27;;;;;;;2.30;1.52;;;11.90;7.60;;;;;;5085919;28;20291;-83
2024/01/29 12:46:03;;;;;;;4.68;1.40;;;11.80;7.60;;;;;;5084026;28;20224;-83
2024/01/29 12:48:32;;;;;;;3.53;1.90;;;11.90;6.10;;;;;;5081898;28;20199;-83
2024/01/29 12:50:59;;;;;;;4.32;1.70;;;12.00;5.80;;;;;;5086278;28;20292;-84
2024/01/29 12:53:26;;;;;;;5.50;1.95;;;11.90;6.20;;;;;;5086480;28;20201;-83
2024/01/29 12:55:53;;;;;;;4.85;1.83;;;11.80;6.40;;;;;;5087573;28;20207;-83
2024/01/29 12:58:21;;;;;;;3.22;1.67;;;11.90;6.80;;;;;;5075369;28;20200;-83